Terminal Aerodrome Forecast
Issued by NWS

Home | Current Version | Previous Version | Graphics & Text | Print | Product List | Glossary On
Versions: 1 2 3 4 5 6 7 8 9 10 11 12
000
FTUS43 KIWX 020539
TAFSBN
TAF
KSBN 020539Z 0206/0306 23008KT P6SM SCT070
     FM021500 22015G23KT P6SM SCT120
     FM021900 23019G27KT P6SM SCT250
     FM030200 21015KT P6SM VCTS BKN050CB=

USA.gov is the U.S. government's official web portal to all federal, state and local government web resources and services.